createdAt,value
2018-05-11T00:00:49.952Z,87.58
2018-05-11T00:01:50.109Z,88.63
2018-05-11T00:02:50.262Z,88.77
2018-05-11T00:03:50.416Z,88.73
2018-05-11T00:04:50.569Z,89.11
2018-05-11T00:05:50.724Z,88.06
2018-05-11T00:06:50.875Z,87.43
2018-05-11T00:07:51.031Z,87.39
2018-05-11T00:08:51.184Z,87.48
2018-05-11T00:09:51.337Z,88.25
2018-05-11T00:10:51.491Z,88.73
2018-05-11T00:11:51.643Z,88.82
2018-05-11T00:12:51.793Z,88.25
2018-05-11T00:13:51.952Z,87.91
2018-05-11T00:14:52.102Z,89.01
2018-05-11T00:15:52.255Z,89.01
2018-05-11T00:16:52.409Z,89.30
2018-05-11T00:17:52.562Z,90.06
2018-05-11T00:18:52.711Z,89.68
2018-05-11T00:19:52.863Z,89.78
2018-05-11T00:20:53.018Z,89.30
2018-05-11T00:21:53.171Z,88.92
2018-05-11T00:22:53.326Z,89.30
2018-05-11T00:23:53.476Z,88.92
2018-05-11T00:24:53.630Z,89.20
2018-05-11T00:25:53.780Z,88.34
2018-05-11T00:26:53.932Z,87.39
2018-05-11T00:27:54.088Z,87.20
2018-05-11T00:28:54.241Z,87.58
2018-05-11T00:29:54.397Z,87.48
2018-05-11T00:30:54.548Z,87.48
2018-05-11T00:31:54.699Z,86.53
2018-05-11T00:32:54.855Z,87.48
2018-05-11T00:33:55.007Z,87.68
2018-05-11T00:34:55.160Z,87.48
2018-05-11T00:35:55.311Z,87.48
2018-05-11T00:36:55.464Z,87.39
2018-05-11T00:37:55.616Z,87.39
2018-05-11T00:38:55.770Z,87.87
2018-05-11T00:39:55.925Z,87.10
2018-05-11T00:40:56.077Z,87.48
2018-05-11T00:41:56.226Z,86.72
2018-05-11T00:42:56.379Z,86.91
2018-05-11T00:43:56.532Z,86.82
2018-05-11T00:44:56.684Z,86.82
2018-05-11T00:45:56.838Z,86.82
2018-05-11T00:46:56.988Z,86.91
2018-05-11T00:47:57.144Z,87.39
2018-05-11T00:48:57.295Z,86.82
2018-05-11T00:49:57.448Z,86.82
2018-05-11T00:50:57.610Z,86.91
2018-05-11T00:51:57.756Z,86.15
2018-05-11T00:52:57.905Z,87.29
2018-05-11T00:53:58.064Z,87.10
2018-05-11T00:54:58.225Z,87.20
2018-05-11T00:55:58.392Z,87.01
2018-05-11T00:56:58.518Z,87.39
2018-05-11T00:57:58.670Z,87.01
2018-05-11T00:58:58.823Z,86.43
2018-05-11T00:59:58.977Z,86.91
2018-05-11T01:00:59.127Z,86.63
2018-05-11T01:01:59.282Z,86.53
2018-05-11T01:02:59.434Z,87.01
2018-05-11T01:03:59.586Z,86.72
2018-05-11T01:04:59.741Z,86.63
2018-05-11T01:05:59.893Z,86.34
2018-05-11T01:07:00.045Z,86.43
2018-05-11T01:08:00.199Z,86.72
2018-05-11T01:09:00.354Z,86.91
2018-05-11T01:10:00.503Z,87.58
2018-05-11T01:11:00.657Z,87.58
2018-05-11T01:12:00.810Z,87.68
2018-05-11T01:13:00.963Z,87.68
2018-05-11T01:14:01.115Z,87.48
2018-05-11T01:15:01.271Z,87.01
2018-05-11T01:16:01.425Z,87.20
2018-05-11T01:17:01.588Z,87.10
2018-05-11T01:18:01.728Z,87.68
2018-05-11T01:19:01.892Z,87.39
2018-05-11T01:20:02.032Z,87.39
2018-05-11T01:21:02.186Z,87.20
2018-05-11T01:22:02.336Z,87.01
2018-05-11T01:23:02.489Z,87.39
2018-05-11T01:24:02.643Z,86.24
2018-05-11T01:25:02.798Z,86.24
2018-05-11T01:26:02.947Z,86.34
2018-05-11T01:27:03.100Z,86.24
2018-05-11T01:28:03.255Z,86.91
2018-05-11T01:29:03.407Z,86.82
2018-05-11T01:30:03.560Z,86.63
2018-05-11T01:31:03.713Z,86.72
2018-05-11T01:32:03.866Z,86.24
2018-05-11T01:33:04.023Z,86.72
2018-05-11T01:34:04.179Z,86.24
2018-05-11T01:35:04.328Z,86.82
2018-05-11T01:36:04.519Z,86.05
2018-05-11T01:37:04.630Z,86.15
2018-05-11T01:38:04.784Z,86.53
2018-05-11T01:39:04.938Z,86.72
2018-05-11T01:40:05.090Z,86.53
2018-05-11T01:41:05.242Z,86.34
2018-05-11T01:42:05.393Z,86.15
2018-05-11T01:43:05.548Z,86.53
2018-05-11T01:44:05.704Z,86.43
2018-05-11T01:45:05.858Z,86.82
2018-05-11T01:46:06.008Z,86.24
2018-05-11T01:47:06.160Z,86.24
2018-05-11T01:48:06.314Z,85.67
2018-05-11T01:49:06.466Z,86.05
2018-05-11T01:50:06.622Z,86.15
2018-05-11T01:51:06.775Z,86.15
2018-05-11T01:52:06.926Z,85.77
2018-05-11T01:53:07.082Z,85.96
2018-05-11T01:54:07.239Z,85.86
2018-05-11T01:55:07.391Z,85.96
2018-05-11T01:56:07.547Z,84.91
2018-05-11T01:57:07.700Z,85.00
2018-05-11T01:58:07.854Z,85.00
2018-05-11T01:59:08.008Z,84.91
2018-05-11T02:00:08.170Z,84.91
2018-05-11T02:01:08.323Z,85.19
2018-05-11T02:02:08.476Z,85.48
2018-05-11T02:03:08.649Z,85.77
2018-05-11T02:04:08.788Z,86.24
2018-05-11T02:05:08.943Z,86.15
2018-05-11T02:06:09.095Z,86.53
2018-05-11T02:07:09.248Z,87.20
2018-05-11T02:08:09.400Z,87.48
2018-05-11T02:09:09.553Z,87.48
2018-05-11T02:10:09.708Z,86.43
2018-05-11T02:11:09.859Z,86.15
2018-05-11T02:12:10.013Z,86.82
2018-05-11T02:13:10.166Z,86.72
2018-05-11T02:14:10.319Z,86.15
2018-05-11T02:15:10.472Z,86.63
2018-05-11T02:16:10.624Z,86.72
2018-05-11T02:17:10.780Z,86.91
2018-05-11T02:18:10.929Z,87.20
2018-05-11T02:19:11.083Z,87.48
2018-05-11T02:20:11.235Z,87.39
2018-05-11T02:21:11.389Z,87.01
2018-05-11T02:22:11.540Z,86.34
2018-05-11T02:23:11.695Z,86.24
2018-05-11T02:24:11.848Z,86.15
2018-05-11T02:25:11.999Z,86.24
2018-05-11T02:26:12.154Z,86.43
2018-05-11T02:27:12.305Z,86.34
2018-05-11T02:28:12.457Z,86.43
2018-05-11T02:29:12.613Z,86.63
2018-05-11T02:30:12.764Z,85.48
2018-05-11T02:31:12.916Z,85.67
2018-05-11T02:32:13.069Z,85.67
2018-05-11T02:33:13.223Z,85.10
2018-05-11T02:34:13.381Z,85.48
2018-05-11T02:35:13.527Z,85.96
2018-05-11T02:36:13.680Z,86.43
2018-05-11T02:37:13.833Z,86.43
2018-05-11T02:38:13.989Z,86.53
2018-05-11T02:39:14.140Z,86.15
2018-05-11T02:40:14.293Z,86.05
2018-05-11T02:41:14.450Z,86.24
2018-05-11T02:42:14.599Z,86.53
2018-05-11T02:43:14.751Z,85.86
2018-05-11T02:44:14.905Z,86.24
2018-05-11T02:45:15.059Z,86.15
2018-05-11T02:46:15.211Z,86.34
2018-05-11T02:47:15.373Z,87.10
2018-05-11T02:48:15.520Z,87.20
2018-05-11T02:49:15.672Z,87.29
2018-05-11T02:50:15.825Z,87.15
2018-05-11T02:51:15.977Z,87.25
2018-05-11T02:52:16.133Z,87.54
2018-05-11T02:53:16.285Z,87.48
2018-05-11T02:54:16.439Z,87.01
2018-05-11T02:55:16.592Z,86.82
2018-05-11T02:56:16.744Z,86.72
2018-05-11T02:57:16.896Z,86.72
2018-05-11T02:58:17.049Z,86.24
2018-05-11T02:59:17.204Z,85.86
2018-05-11T03:00:17.355Z,85.96
2018-05-11T03:01:17.506Z,85.77
2018-05-11T03:02:17.659Z,85.86
2018-05-11T03:03:17.812Z,85.77
2018-05-11T03:04:17.972Z,86.43
2018-05-11T03:05:18.118Z,86.63
2018-05-11T03:06:18.292Z,85.77
2018-05-11T03:07:18.444Z,86.24
2018-05-11T03:08:18.600Z,86.53
2018-05-11T03:09:18.749Z,87.10
2018-05-11T03:10:18.901Z,86.72
2018-05-11T03:11:19.054Z,87.48
2018-05-11T03:12:19.208Z,87.06
2018-05-11T03:13:19.360Z,87.44
2018-05-11T03:14:19.514Z,87.92
2018-05-11T03:15:19.667Z,87.25
2018-05-11T03:16:19.819Z,87.82
2018-05-11T03:17:19.998Z,88.20
2018-05-11T03:18:20.129Z,87.92
2018-05-11T03:19:20.277Z,88.20
2018-05-11T03:20:20.432Z,88.25
2018-05-11T03:21:20.585Z,88.20
2018-05-11T03:22:20.739Z,88.49
2018-05-11T03:23:20.889Z,88.87
2018-05-11T03:24:21.045Z,88.30
2018-05-11T03:25:21.196Z,89.16
2018-05-11T03:26:21.347Z,89.64
2018-05-11T03:27:21.505Z,89.16
2018-05-11T03:28:21.654Z,89.16
2018-05-11T03:29:21.806Z,88.68
2018-05-11T03:30:21.959Z,88.97
2018-05-11T03:31:22.111Z,88.68
2018-05-11T03:32:22.264Z,88.68
2018-05-11T03:33:22.417Z,88.49
2018-05-11T03:34:22.579Z,88.87
2018-05-11T03:35:22.722Z,88.30
2018-05-11T03:36:22.885Z,89.16
2018-05-11T03:37:23.026Z,88.68
2018-05-11T03:38:23.181Z,88.68
2018-05-11T03:39:23.332Z,89.06
2018-05-11T03:40:23.487Z,89.16
2018-05-11T03:41:23.635Z,89.35
2018-05-11T03:42:23.788Z,89.16
2018-05-11T03:43:23.942Z,88.68
2018-05-11T03:44:24.096Z,88.68
2018-05-11T03:45:24.304Z,88.97
2018-05-11T03:46:24.398Z,88.87
2018-05-11T03:47:24.552Z,88.49
2018-05-11T03:48:24.703Z,88.49
2018-05-11T03:49:24.857Z,88.40
2018-05-11T03:50:25.013Z,88.59
2018-05-11T03:51:25.164Z,89.06
2018-05-11T03:52:25.316Z,89.06
2018-05-11T03:53:25.470Z,89.16
2018-05-11T03:54:25.620Z,88.87
2018-05-11T03:55:25.775Z,89.06
2018-05-11T03:56:25.926Z,88.68
2018-05-11T03:57:26.086Z,88.87
2018-05-11T03:58:26.235Z,89.16
2018-05-11T03:59:26.389Z,89.54
2018-05-11T04:00:26.543Z,88.97
2018-05-11T04:01:26.695Z,88.87
2018-05-11T04:02:26.847Z,88.78
2018-05-11T04:03:27.006Z,89.25
2018-05-11T04:04:27.155Z,89.25
2018-05-11T04:05:27.307Z,89.35
2018-05-11T04:06:27.459Z,88.87
2018-05-11T04:07:27.612Z,89.16
2018-05-11T04:08:27.767Z,89.64
2018-05-11T04:09:27.916Z,89.35
2018-05-11T04:10:28.068Z,90.40
2018-05-11T04:11:28.224Z,89.83
2018-05-11T04:12:28.375Z,90.02
2018-05-11T04:13:28.537Z,90.02
2018-05-11T04:14:28.742Z,90.31
2018-05-11T04:15:28.832Z,90.21
2018-05-11T04:16:28.983Z,90.02
2018-05-11T04:17:29.138Z,90.59
2018-05-11T04:18:29.302Z,90.50
2018-05-11T04:19:29.448Z,90.59
2018-05-11T04:20:29.601Z,91.16
2018-05-11T04:21:29.753Z,91.45
2018-05-11T04:22:29.907Z,90.78
2018-05-11T04:23:30.062Z,90.59
2018-05-11T04:24:30.215Z,89.83
2018-05-11T04:25:30.370Z,89.92
2018-05-11T04:26:30.524Z,90.88
2018-05-11T04:27:30.680Z,90.50
2018-05-11T04:28:30.831Z,89.73
2018-05-11T04:29:30.981Z,90.02
2018-05-11T04:30:31.138Z,89.54
2018-05-11T04:31:31.291Z,89.54
2018-05-11T04:32:31.443Z,89.35
2018-05-11T04:33:31.595Z,89.45
2018-05-11T04:34:31.748Z,89.35
2018-05-11T04:35:31.901Z,89.64
2018-05-11T04:36:32.054Z,90.21
2018-05-11T04:37:32.204Z,90.21
2018-05-11T04:38:32.360Z,90.69
2018-05-11T04:39:32.511Z,90.11
2018-05-11T04:40:32.669Z,90.88
2018-05-11T04:41:32.816Z,89.64
2018-05-11T04:42:32.968Z,90.02
2018-05-11T04:43:33.123Z,89.83
2018-05-11T04:44:33.318Z,90.06
2018-05-11T04:45:33.428Z,89.78
2018-05-11T04:46:33.591Z,89.39
2018-05-11T04:47:33.743Z,89.30
2018-05-11T04:48:33.898Z,89.39
2018-05-11T04:49:34.051Z,90.06
2018-05-11T04:50:34.219Z,89.97
2018-05-11T04:51:34.357Z,89.11
2018-05-11T04:52:34.510Z,89.30
2018-05-11T04:53:34.663Z,88.73
2018-05-11T04:54:34.816Z,88.77
2018-05-11T04:55:34.970Z,88.73
2018-05-11T04:56:35.124Z,89.11
2018-05-11T04:57:35.279Z,88.25
2018-05-11T04:58:35.431Z,88.29
2018-05-11T04:59:35.588Z,88.01
2018-05-11T05:00:35.737Z,88.48
2018-05-11T05:01:35.890Z,88.29
2018-05-11T05:02:36.046Z,88.48
2018-05-11T05:03:36.197Z,87.91
2018-05-11T05:04:36.350Z,87.15
2018-05-11T05:05:36.503Z,87.39
2018-05-11T05:06:36.656Z,87.48
2018-05-11T05:07:36.809Z,87.53
2018-05-11T05:08:36.964Z,88.10
2018-05-11T05:09:37.117Z,88.10
2018-05-11T05:10:37.269Z,88.01
2018-05-11T05:11:37.426Z,88.15
2018-05-11T05:12:37.577Z,88.73
2018-05-11T05:13:37.732Z,88.82
2018-05-11T05:14:37.886Z,88.73
2018-05-11T05:15:38.041Z,88.68
2018-05-11T05:16:38.193Z,88.73
2018-05-11T05:17:38.349Z,88.96
2018-05-11T05:18:38.508Z,89.30
2018-05-11T05:19:38.657Z,89.11
2018-05-11T05:20:38.811Z,89.59
2018-05-11T05:21:38.965Z,89.11
2018-05-11T05:22:39.119Z,88.34
2018-05-11T05:23:39.270Z,88.63
2018-05-11T05:24:39.423Z,88.73
2018-05-11T05:25:39.577Z,89.11
2018-05-11T05:26:39.729Z,88.73
2018-05-11T05:27:39.887Z,89.01
2018-05-11T05:28:40.039Z,89.30
2018-05-11T05:29:40.193Z,89.49
2018-05-11T05:30:40.347Z,89.87
2018-05-11T05:31:40.505Z,89.68
2018-05-11T05:32:40.657Z,89.68
2018-05-11T05:33:40.807Z,89.39
2018-05-11T05:34:40.961Z,89.11
2018-05-11T05:35:41.119Z,88.92
2018-05-11T05:36:41.270Z,87.96
2018-05-11T05:37:41.421Z,88.25
2018-05-11T05:38:41.573Z,88.06
2018-05-11T05:39:41.732Z,88.54
2018-05-11T05:40:41.886Z,88.73
2018-05-11T05:41:42.038Z,88.82
2018-05-11T05:42:42.194Z,88.25
2018-05-11T05:43:42.344Z,88.15
2018-05-11T05:44:42.497Z,87.91
2018-05-11T05:45:42.650Z,87.53
2018-05-11T05:46:42.804Z,87.43
2018-05-11T05:47:42.957Z,87.62
2018-05-11T05:48:43.116Z,87.34
2018-05-11T05:49:43.264Z,87.72
2018-05-11T05:50:43.419Z,87.53
2018-05-11T05:51:43.575Z,88.48
2018-05-11T05:52:43.726Z,87.15
2018-05-11T05:53:43.879Z,87.05
2018-05-11T05:54:44.032Z,86.76
2018-05-11T05:55:44.186Z,86.71
2018-05-11T05:56:44.343Z,85.18
2018-05-11T05:57:44.497Z,84.85
2018-05-11T05:58:44.650Z,85.14
2018-05-11T05:59:44.805Z,85.38
2018-05-11T06:00:44.956Z,85.09
2018-05-11T06:01:45.110Z,84.42
2018-05-11T06:02:45.262Z,85.18
2018-05-11T06:03:45.416Z,85.85
2018-05-11T06:04:45.572Z,85.75
2018-05-11T06:05:45.725Z,84.23
2018-05-11T06:06:45.878Z,83.94
2018-05-11T06:07:46.036Z,83.80
2018-05-11T06:08:46.186Z,84.23
2018-05-11T06:09:46.339Z,83.84
2018-05-11T06:10:46.540Z,83.75
2018-05-11T06:11:46.649Z,84.27
2018-05-11T06:12:46.801Z,83.31
2018-05-11T06:13:46.957Z,82.17
2018-05-11T06:14:47.110Z,82.35
2018-05-11T06:15:47.265Z,81.11
2018-05-11T06:16:47.419Z,80.96
2018-05-11T06:17:47.663Z,80.48
2018-05-11T06:18:47.725Z,82.59
2018-05-11T06:19:47.880Z,81.92
2018-05-11T06:20:48.112Z,80.10
2018-05-11T06:21:48.191Z,79.43
2018-05-11T06:22:48.344Z,78.86
2018-05-11T06:23:48.500Z,79.43
2018-05-11T06:24:48.743Z,80.00
2018-05-11T06:25:48.810Z,78.66
2018-05-11T06:26:48.963Z,78.32
2018-05-11T06:27:49.118Z,77.61
2018-05-11T06:28:49.272Z,77.33
2018-05-11T06:29:49.426Z,77.70
2018-05-11T06:30:49.580Z,79.43
2018-05-11T06:31:49.735Z,79.33
2018-05-11T06:32:49.887Z,78.86
2018-05-11T06:33:50.045Z,77.70
2018-05-11T06:34:50.200Z,77.23
2018-05-11T06:35:50.355Z,77.99
2018-05-11T06:36:50.509Z,77.90
2018-05-11T06:37:50.671Z,77.99
2018-05-11T06:38:50.820Z,78.66
2018-05-11T06:39:50.973Z,77.26
2018-05-11T06:40:51.127Z,76.89
2018-05-11T06:41:51.285Z,75.96
2018-05-11T06:42:51.441Z,75.10
2018-05-11T06:43:51.596Z,75.10
2018-05-11T06:44:51.750Z,75.10
2018-05-11T06:45:51.908Z,74.77
2018-05-11T06:46:52.063Z,75.10
2018-05-11T06:47:52.220Z,74.43
2018-05-11T06:48:52.372Z,74.05
2018-05-11T06:49:52.527Z,74.72
2018-05-11T06:50:52.683Z,74.08
2018-05-11T06:51:52.840Z,73.90
2018-05-11T06:52:52.995Z,73.32
2018-05-11T06:53:53.149Z,72.61
2018-05-11T06:54:53.306Z,72.80
2018-05-11T06:55:53.493Z,72.36
2018-05-11T06:56:53.616Z,72.90
2018-05-11T06:57:53.771Z,72.99
2018-05-11T06:58:53.929Z,72.64
2018-05-11T06:59:54.085Z,72.84
2018-05-11T07:00:54.241Z,73.76
2018-05-11T07:01:54.395Z,73.76
2018-05-11T07:02:54.553Z,72.32
2018-05-11T07:03:54.708Z,72.80
2018-05-11T07:04:54.864Z,72.80
2018-05-11T07:05:55.023Z,72.61
2018-05-11T07:06:55.180Z,73.95
2018-05-11T07:07:55.383Z,72.80
2018-05-11T07:08:55.492Z,72.74
2018-05-11T07:09:55.651Z,72.55
2018-05-11T07:10:55.808Z,71.44
2018-05-11T07:11:55.964Z,71.25
2018-05-11T07:12:56.119Z,71.40
2018-05-11T07:13:56.281Z,72.45
2018-05-11T07:14:56.433Z,71.78
2018-05-11T07:15:56.588Z,70.96
2018-05-11T07:16:56.744Z,71.15
2018-05-11T07:17:56.898Z,70.96
2018-05-11T07:18:57.055Z,71.53
2018-05-11T07:19:57.210Z,71.63
2018-05-11T07:20:57.373Z,70.76
2018-05-11T07:21:57.523Z,70.48
2018-05-11T07:22:57.683Z,69.96
2018-05-11T07:23:57.837Z,70.09
2018-05-11T07:24:57.993Z,70.00
2018-05-11T07:25:58.149Z,71.15
2018-05-11T07:26:58.305Z,70.29
2018-05-11T07:27:58.474Z,69.90
2018-05-11T07:28:58.654Z,69.71
2018-05-11T07:29:58.787Z,71.63
2018-05-11T07:30:58.939Z,71.05
2018-05-11T07:31:59.097Z,70.67
2018-05-11T07:32:59.263Z,69.56
2018-05-11T07:33:59.411Z,69.56
2018-05-11T07:34:59.600Z,70.48
2018-05-11T07:35:59.731Z,69.65
2018-05-11T07:36:59.893Z,69.17
2018-05-11T07:38:00.045Z,69.17
2018-05-11T07:39:00.202Z,69.26
2018-05-11T07:40:00.358Z,69.07
2018-05-11T07:41:00.518Z,68.69
2018-05-11T07:42:00.807Z,68.79
2018-05-11T07:43:00.981Z,69.07
2018-05-11T07:44:01.041Z,69.13
2018-05-11T07:45:01.199Z,68.66
2018-05-11T07:46:01.355Z,70.41
2018-05-11T07:47:01.512Z,70.83
2018-05-11T07:48:01.669Z,71.44
2018-05-11T07:49:01.827Z,71.44
2018-05-11T07:50:01.984Z,70.86
2018-05-11T07:51:02.144Z,69.90
2018-05-11T07:52:02.298Z,70.06
2018-05-11T07:53:02.458Z,70.83
2018-05-11T07:54:02.613Z,72.27
2018-05-11T07:55:02.769Z,72.42
2018-05-11T07:56:02.925Z,71.31
2018-05-11T07:57:03.083Z,71.11
2018-05-11T07:58:03.240Z,71.27
2018-05-11T07:59:03.414Z,72.23
2018-05-11T08:00:03.569Z,72.52
2018-05-11T08:01:03.724Z,72.03
2018-05-11T08:02:03.884Z,72.90
2018-05-11T08:03:04.041Z,72.13
2018-05-11T08:04:04.379Z,71.56
2018-05-11T08:05:04.358Z,70.98
2018-05-11T08:06:04.513Z,70.60
2018-05-11T08:07:04.671Z,70.50
2018-05-11T08:08:04.828Z,69.68
2018-05-11T08:09:04.988Z,70.35
2018-05-11T08:10:05.164Z,70.06
2018-05-11T08:11:05.346Z,68.91
2018-05-11T08:12:05.519Z,68.62
2018-05-11T08:13:05.683Z,69.87
2018-05-11T08:14:05.939Z,69.52
2018-05-11T08:15:06.033Z,67.79
2018-05-11T08:16:06.257Z,67.63
2018-05-11T08:17:06.379Z,66.49
2018-05-11T08:18:06.427Z,66.00
2018-05-11T08:19:06.728Z,66.77
2018-05-11T08:20:06.839Z,66.61
2018-05-11T08:21:06.879Z,65.62
2018-05-11T08:22:07.081Z,66.67
2018-05-11T08:23:07.243Z,65.14
2018-05-11T08:24:07.415Z,65.75
2018-05-11T08:25:07.554Z,65.08
2018-05-11T08:26:07.709Z,63.12
2018-05-11T08:27:07.865Z,64.02
2018-05-11T08:28:08.027Z,63.32
2018-05-11T08:29:08.181Z,62.55
2018-05-11T08:30:08.339Z,63.03
2018-05-11T08:31:08.495Z,62.93
2018-05-11T08:32:08.655Z,64.09
2018-05-11T08:33:08.814Z,63.32
2018-05-11T08:34:08.974Z,63.89
2018-05-11T08:35:09.131Z,63.06
2018-05-11T08:36:09.286Z,63.73
2018-05-11T08:37:09.446Z,62.39
2018-05-11T08:38:09.615Z,64.12
2018-05-11T08:39:09.774Z,65.08
2018-05-11T08:40:09.935Z,63.03
2018-05-11T08:41:10.098Z,62.48
2018-05-11T08:42:10.250Z,63.12
2018-05-11T08:43:10.408Z,63.83
2018-05-11T08:44:10.573Z,63.35
2018-05-11T08:45:10.729Z,63.06
2018-05-11T08:46:10.887Z,62.23
2018-05-11T08:47:11.045Z,59.95
2018-05-11T08:48:11.204Z,59.06
2018-05-11T08:49:11.366Z,59.06
2018-05-11T08:50:11.518Z,59.57
2018-05-11T08:51:11.677Z,59.76
2018-05-11T08:52:11.835Z,60.60
2018-05-11T08:53:11.993Z,59.95
2018-05-11T08:54:12.152Z,59.28
2018-05-11T08:55:12.308Z,59.73
2018-05-11T08:56:12.467Z,59.73
2018-05-11T08:57:12.625Z,59.92
2018-05-11T08:58:12.783Z,59.54
2018-05-11T08:59:12.940Z,59.28
2018-05-11T09:00:13.100Z,60.63
2018-05-11T09:01:13.252Z,59.99
2018-05-11T09:02:13.409Z,59.79
2018-05-11T09:03:13.566Z,60.94
2018-05-11T09:04:13.726Z,59.41
2018-05-11T09:05:13.885Z,59.22
2018-05-11T09:06:14.045Z,60.63
2018-05-11T09:07:14.203Z,60.50
2018-05-11T09:08:14.443Z,60.72
2018-05-11T09:09:14.527Z,59.47
2018-05-11T09:10:14.687Z,59.38
2018-05-11T09:11:14.846Z,58.22
2018-05-11T09:12:15.004Z,57.55
2018-05-11T09:13:15.167Z,58.22
2018-05-11T09:14:15.319Z,58.03
2018-05-11T09:15:15.477Z,56.68
2018-05-11T09:16:15.638Z,57.26
2018-05-11T09:17:15.797Z,57.62
2018-05-11T09:18:15.954Z,58.45
2018-05-11T09:19:16.114Z,59.29
2018-05-11T09:20:16.272Z,60.44
2018-05-11T09:21:16.432Z,62.07
2018-05-11T09:22:16.590Z,61.98
2018-05-11T09:23:16.746Z,62.07
2018-05-11T09:24:16.903Z,60.85
2018-05-11T09:25:17.063Z,60.85
2018-05-11T09:26:17.224Z,60.75
2018-05-11T09:27:17.383Z,60.40
2018-05-11T09:28:17.542Z,60.69
2018-05-11T09:29:17.696Z,60.69
2018-05-11T09:30:17.853Z,61.75
2018-05-11T09:31:18.011Z,63.32
2018-05-11T09:32:18.170Z,61.97
2018-05-11T09:33:18.328Z,62.64
2018-05-11T09:34:18.487Z,59.57
2018-05-11T09:35:18.644Z,60.91
2018-05-11T09:36:18.804Z,59.47
2018-05-11T09:37:18.963Z,59.60
2018-05-11T09:38:19.121Z,59.66
2018-05-11T09:39:19.282Z,59.19
2018-05-11T09:40:19.438Z,59.47
2018-05-11T09:41:19.596Z,61.11
2018-05-11T09:42:19.754Z,60.91
2018-05-11T09:43:19.916Z,60.75
2018-05-11T09:44:20.082Z,59.89
2018-05-11T09:45:20.242Z,58.64
2018-05-11T09:46:20.399Z,58.06
2018-05-11T09:47:20.556Z,57.60
2018-05-11T09:48:20.712Z,57.97
2018-05-11T09:49:20.915Z,58.89
2018-05-11T09:50:21.093Z,59.86
2018-05-11T09:51:21.185Z,60.82
2018-05-11T09:52:21.348Z,60.91
2018-05-11T09:53:21.508Z,61.30
2018-05-11T09:54:21.668Z,60.69
2018-05-11T09:55:21.824Z,60.78
2018-05-11T09:56:21.986Z,61.08
2018-05-11T09:57:22.147Z,63.67
2018-05-11T09:58:22.303Z,64.82
2018-05-11T09:59:22.463Z,62.32
2018-05-11T10:00:22.623Z,60.82
2018-05-11T10:01:22.780Z,60.82
2018-05-11T10:02:22.938Z,59.76
2018-05-11T10:03:23.095Z,58.99
2018-05-11T10:04:23.245Z,59.22
2018-05-11T10:05:23.402Z,60.56
2018-05-11T10:06:23.563Z,58.92
2018-05-11T10:07:23.723Z,56.93
2018-05-11T10:08:23.881Z,55.68
2018-05-11T10:09:24.039Z,57.39
2018-05-11T10:10:24.201Z,58.92
2018-05-11T10:11:24.364Z,58.92
2018-05-11T10:12:24.521Z,57.68
2018-05-11T10:13:24.679Z,57.13
2018-05-11T10:14:24.839Z,57.32
2018-05-11T10:15:24.996Z,56.84
2018-05-11T10:16:25.156Z,57.03
2018-05-11T10:17:25.312Z,55.68
2018-05-11T10:18:25.474Z,55.49
2018-05-11T10:19:25.632Z,55.59
2018-05-11T10:20:25.791Z,57.99
2018-05-11T10:21:25.950Z,56.55
2018-05-11T10:22:26.107Z,55.46
2018-05-11T10:23:26.265Z,56.84
2018-05-11T10:24:26.424Z,55.27
2018-05-11T10:25:26.582Z,54.82
2018-05-11T10:26:26.739Z,57.03
2018-05-11T10:27:26.903Z,59.24
2018-05-11T10:28:27.060Z,55.71
2018-05-11T10:29:27.227Z,54.27
2018-05-11T10:30:27.379Z,56.77
2018-05-11T10:31:27.540Z,53.31
2018-05-11T10:32:27.700Z,53.28
2018-05-11T10:33:27.860Z,54.75
2018-05-11T10:34:28.076Z,54.91
2018-05-11T10:35:28.183Z,54.63
2018-05-11T10:36:28.341Z,56.14
2018-05-11T10:37:28.500Z,56.84
2018-05-11T10:38:28.661Z,56.55
2018-05-11T10:39:28.818Z,55.59
2018-05-11T10:40:28.979Z,55.68
2018-05-11T10:41:29.143Z,56.55
2018-05-11T10:42:29.297Z,56.62
2018-05-11T10:43:29.459Z,57.42
2018-05-11T10:44:29.617Z,56.84
2018-05-11T10:45:29.777Z,57.35
2018-05-11T10:46:29.934Z,56.96
2018-05-11T10:47:30.098Z,55.90
2018-05-11T10:48:30.276Z,56.51
2018-05-11T10:49:30.418Z,55.83
2018-05-11T10:50:30.576Z,54.52
2018-05-11T10:51:30.735Z,52.40
2018-05-11T10:52:30.899Z,51.92
2018-05-11T10:53:31.057Z,52.61
2018-05-11T10:54:31.225Z,52.13
2018-05-11T10:55:31.386Z,52.87
2018-05-11T10:56:31.552Z,51.60
2018-05-11T10:57:31.703Z,52.73
2018-05-11T10:58:31.866Z,53.21
2018-05-11T10:59:32.025Z,55.23
2018-05-11T11:00:32.185Z,55.88
2018-05-11T11:01:32.347Z,56.65
2018-05-11T11:02:32.506Z,55.68
2018-05-11T11:03:32.669Z,54.60
2018-05-11T11:04:32.828Z,56.43
2018-05-11T11:05:32.992Z,54.79
2018-05-11T11:06:33.146Z,55.05
2018-05-11T11:07:33.335Z,55.27
2018-05-11T11:08:33.493Z,59.63
2018-05-11T11:09:33.656Z,58.22
2018-05-11T11:10:33.813Z,56.03
2018-05-11T11:11:33.981Z,55.65
2018-05-11T11:12:34.134Z,56.73
2018-05-11T11:13:34.302Z,56.15
2018-05-11T11:14:34.456Z,55.89
2018-05-11T11:15:34.613Z,53.48
2018-05-11T11:16:34.771Z,54.83
2018-05-11T11:17:34.932Z,50.04
2018-05-11T11:18:35.093Z,50.52
2018-05-11T11:19:35.252Z,49.84
2018-05-11T11:20:35.413Z,48.88
2018-05-11T11:21:35.570Z,47.34
2018-05-11T11:22:35.732Z,48.01
2018-05-11T11:23:35.889Z,48.30
2018-05-11T11:24:36.050Z,49.10
2018-05-11T11:25:36.213Z,49.87
2018-05-11T11:26:36.370Z,51.00
2018-05-11T11:27:36.531Z,48.49
2018-05-11T11:28:36.697Z,48.06
2018-05-11T11:29:36.856Z,48.86
2018-05-11T11:30:37.017Z,49.73
2018-05-11T11:31:37.175Z,53.39
2018-05-11T11:32:37.336Z,51.46
2018-05-11T11:33:37.501Z,52.23
2018-05-11T11:34:37.664Z,51.00
2018-05-11T11:35:37.825Z,53.31
2018-05-11T11:36:37.984Z,50.42
2018-05-11T11:37:38.144Z,48.18
2018-05-11T11:38:38.305Z,51.31
2018-05-11T11:39:38.465Z,51.89
2018-05-11T11:40:38.626Z,51.34
2018-05-11T11:41:38.788Z,54.80
2018-05-11T11:42:38.950Z,53.27
2018-05-11T11:43:39.112Z,53.65
2018-05-11T11:44:39.272Z,55.38
2018-05-11T11:45:39.432Z,53.74
2018-05-11T11:46:39.592Z,53.67
2018-05-11T11:47:39.783Z,51.26
2018-05-11T11:48:39.913Z,51.84
2018-05-11T11:49:40.073Z,51.10
2018-05-11T11:50:40.234Z,49.94
2018-05-11T11:51:40.396Z,49.84
2018-05-11T11:52:40.561Z,51.68
2018-05-11T11:53:40.720Z,51.51
2018-05-11T11:54:40.880Z,50.18
2018-05-11T11:55:41.042Z,50.16
2018-05-11T11:56:41.200Z,48.06
2018-05-11T11:57:41.361Z,48.42
2018-05-11T11:58:41.525Z,47.85
2018-05-11T11:59:41.685Z,48.16
2018-05-11T12:00:41.845Z,49.02
2018-05-11T12:01:42.034Z,48.16
2018-05-11T12:02:42.167Z,48.23
2018-05-11T12:03:42.328Z,49.19
2018-05-11T12:04:42.489Z,48.30
2018-05-11T12:05:42.651Z,47.82
2018-05-11T12:06:42.811Z,48.18
2018-05-11T12:07:42.978Z,50.76
2018-05-11T12:08:43.138Z,50.18
2018-05-11T12:09:43.295Z,50.69
2018-05-11T12:10:43.462Z,50.01
2018-05-11T12:11:43.621Z,51.56
2018-05-11T12:12:43.781Z,51.07
2018-05-11T12:13:43.941Z,48.76
2018-05-11T12:14:44.102Z,49.27
2018-05-11T12:15:44.263Z,52.83
2018-05-11T12:16:44.429Z,50.78
2018-05-11T12:17:44.588Z,49.15
2018-05-11T12:18:44.746Z,48.49
2018-05-11T12:19:44.909Z,48.23
2018-05-11T12:20:45.069Z,48.81
2018-05-11T12:21:45.237Z,49.22
2018-05-11T12:22:45.396Z,48.03
2018-05-11T12:23:45.558Z,47.00
2018-05-11T12:24:45.720Z,45.72
2018-05-11T12:25:45.881Z,49.19
2018-05-11T12:26:46.045Z,47.96
2018-05-11T12:27:46.205Z,47.87
2018-05-11T12:28:46.366Z,45.84
2018-05-11T12:29:46.527Z,46.54
2018-05-11T12:30:46.688Z,43.93
2018-05-11T12:31:46.851Z,43.91
2018-05-11T12:32:47.012Z,43.24
2018-05-11T12:33:47.174Z,44.01
2018-05-11T12:34:47.344Z,45.43
2018-05-11T12:35:47.500Z,45.38
2018-05-11T12:36:47.655Z,44.49
2018-05-11T12:37:47.819Z,44.03
2018-05-11T12:38:47.980Z,43.78
2018-05-11T12:39:48.143Z,44.07
2018-05-11T12:40:48.305Z,45.64
2018-05-11T12:41:48.469Z,42.45
2018-05-11T12:42:48.633Z,41.87
2018-05-11T12:43:48.796Z,42.72
2018-05-11T12:44:48.959Z,43.49
2018-05-11T12:45:49.126Z,43.68
2018-05-11T12:46:49.287Z,43.01
2018-05-11T12:47:49.452Z,42.52
2018-05-11T12:48:49.612Z,42.99
2018-05-11T12:49:49.773Z,43.91
2018-05-11T12:50:49.937Z,44.93
2018-05-11T12:51:50.101Z,46.30
2018-05-11T12:52:50.520Z,45.07
2018-05-11T12:53:50.422Z,46.23
2018-05-11T12:54:50.583Z,45.26